Terminal Aerodrome Forecast
Issued by NWS

Home | Current Version | Previous Version | Text Only | Print | Product List | Glossary On
Versions: 1 2 3 4 5 6 7 8 9 10 11 12
000
FTUS41 KAKQ 012300
TAFPHF
TAF
KPHF 012339Z 0200/0224 07008KT 5SM -RA BR BKN020 OVC100
     FM020600 09005KT 5SM -RA BR OVC012
     FM021400 22010G15KT 5SM -RA SCT012 OVC100=

USA.gov is the U.S. government's official web portal to all federal, state and local government web resources and services.